This is the latest recevied weather packets stored in our database for station/object N4QD-13. If no packets are shown the sender has not sent any weather packets the latest 10 day(s).
| Time | Temp. | Humidity | Pressure | Rain* | Wind** | Luminosity | Snow |
|---|---|---|---|---|---|---|---|
| 1778019300 | 26.11° C | 34% | 1011.5 hPa | 0 mm | - | 119 W/m² | - |
| 1778018997 | 25.56° C | 36% | 1011.7 hPa | 0 mm | - | 215 W/m² | - |
| 1778018694 | 25.56° C | 35% | 1011.5 hPa | 0 mm | - | 166 W/m² | - |
| 1778018391 | 26.11° C | 35% | 1011.7 hPa | 0 mm | - | 204 W/m² | - |
| 1778018089 | 25.56° C | 36% | 1011.5 hPa | 0 mm | - | 242 W/m² | - |
| 1778017787 | 26.11° C | 35% | 1011.4 hPa | 0 mm | - | 222 W/m² | - |
| 1778017485 | 25.56° C | 36% | 1011.5 hPa | 0 mm | - | 332 W/m² | - |
| 1778017182 | 25.56° C | 36% | 1011.3 hPa | 0 mm | - | 257 W/m² | - |
| 1778016879 | 25.56° C | 37% | 1011.4 hPa | 0 mm | - | 164 W/m² | - |
| 1778016575 | 26.11° C | 36% | 1011.1 hPa | 0 mm | - | 153 W/m² | - |
| 1778016272 | 26.67° C | 35% | 1011.2 hPa | 0 mm | - | 298 W/m² | - |
| 1778015968 | 27.22° C | 36% | 1011.1 hPa | 0 mm | - | 364 W/m² | - |
| 1778015666 | 27.22° C | 35% | 1011 hPa | 0 mm | - | 437 W/m² | - |
| 1778015362 | 27.22° C | 36% | 1010.9 hPa | 0 mm | - | 457 W/m² | - |
| 1778015063 | 27.22° C | 35% | 1010.9 hPa | 0 mm | - | 479 W/m² | - |
| 1778014756 | 27.22° C | 36% | 1010.7 hPa | 0 mm | - | 467 W/m² | - |
| 1778014455 | 27.22° C | 36% | 1011.2 hPa | 0 mm | - | 653 W/m² | - |
| 1778014151 | 26.67° C | 37% | 1011.4 hPa | 0 mm | - | 533 W/m² | - |
| 1778013849 | 27.78° C | 36% | 1011.3 hPa | 0 mm | - | 301 W/m² | - |
| 1778013546 | 27.22° C | 37% | 1011.1 hPa | 0 mm | - | 747 W/m² | - |
| 1778013242 | 26.67° C | 37% | 1011 hPa | 0 mm | - | 393 W/m² | - |
| 1778012939 | 26.67° C | 37% | 1011.1 hPa | 0 mm | - | 313 W/m² | - |
| 1778012635 | 26.67° C | 37% | 1011.1 hPa | 0 mm | - | 329 W/m² | - |
| 1778012332 | 26.67° C | 34% | 1011.1 hPa | 0 mm | - | 397 W/m² | - |
| 1778012029 | 27.22° C | 32% | 1011 hPa | 0 mm | - | 302 W/m² | - |
* Rain latest hour (hover to see other rain measurements)
** Current wind speed in m/s (hover to see current wind gust speed)